Alt de Sans Souci, Puerto Rico
Current Conditions -  °F | °C
As of 1:56 PM on Monday 24 Nov 2014 (Local Time) from TJSJ Reporting Station
Broken Clouds Broken Clouds  
Wind Chill: 80°   Ceiling: 4900
Heat Index: 85°   Visibility: 10mi
Dew Point: 75°   Wind: 10mph
Humidity: 85%   Direction: 80°E
Pressure: 30.01"   Gusts: 24mph
Location:  18.1783°N, 66.1111°W
Report Text: TJSJ 241756Z 08009G21KT 10SM SCT023 BKN049 BKN060 27/24 A3001 RMK AO2 RAB21E35B52E55 SLP161 VCSH W P0001 60007 T02670239 10294 20261 58017
Loading
Personal Weather Stations






























Interactive Weather Map New forecast layout! Learn more

10-Day Weather Forecast

Advertisements
Track Severe Weather on mobile